createdAt,value
2019-01-14T00:01:39.046Z,6.54
2019-01-14T00:04:07.122Z,6.61
2019-01-14T00:06:35.093Z,6.62
2019-01-14T00:09:05.807Z,6.67
2019-01-14T00:11:33.846Z,6.64
2019-01-14T00:14:01.822Z,6.55
2019-01-14T00:16:30.094Z,6.48
2019-01-14T00:18:58.397Z,6.38
2019-01-14T00:21:27.951Z,6.25
2019-01-14T00:23:56.426Z,6.37
2019-01-14T00:26:24.742Z,6.44
2019-01-14T00:28:52.717Z,6.50
2019-01-14T00:31:21.157Z,6.50
2019-01-14T00:33:49.375Z,6.42
2019-01-14T00:36:17.826Z,6.46
2019-01-14T00:38:46.201Z,6.50
2019-01-14T00:41:14.168Z,6.56
2019-01-14T00:43:42.402Z,6.53
2019-01-14T00:46:10.407Z,6.48
2019-01-14T00:48:38.668Z,6.53
2019-01-14T00:51:06.652Z,6.50
2019-01-14T00:53:34.627Z,6.48
2019-01-14T00:56:02.570Z,6.43
2019-01-14T00:58:30.553Z,6.43
2019-01-14T01:00:58.503Z,6.46
2019-01-14T01:03:26.823Z,6.35
2019-01-14T01:05:54.750Z,6.23
2019-01-14T01:08:22.693Z,6.26
2019-01-14T01:10:51.213Z,6.36
2019-01-14T01:13:19.162Z,6.33
2019-01-14T01:15:47.041Z,6.19
2019-01-14T01:18:15.263Z,6.28
2019-01-14T01:20:43.485Z,6.41
2019-01-14T01:23:11.555Z,6.26
2019-01-14T01:25:39.544Z,6.25
2019-01-14T01:28:07.700Z,6.20
2019-01-14T01:30:35.685Z,6.41
2019-01-14T01:33:03.843Z,6.34
2019-01-14T01:35:31.842Z,6.32
2019-01-14T01:37:59.810Z,6.31
2019-01-14T01:40:28.349Z,6.19
2019-01-14T01:42:57.091Z,6.05
2019-01-14T01:45:25.239Z,6.23
2019-01-14T01:47:53.265Z,6.29
2019-01-14T01:50:21.210Z,6.30
2019-01-14T01:52:49.786Z,6.23
2019-01-14T01:55:17.978Z,6.35
2019-01-14T01:57:46.156Z,6.40
2019-01-14T02:00:19.727Z,6.48
2019-01-14T02:02:48.015Z,6.38
2019-01-14T02:05:17.075Z,6.52
2019-01-14T02:07:45.012Z,6.34
2019-01-14T02:10:17.688Z,6.28
2019-01-14T02:12:46.490Z,6.24
2019-01-14T02:15:15.024Z,6.17
2019-01-14T02:17:43.029Z,6.31
2019-01-14T02:20:13.019Z,6.27
2019-01-14T02:22:40.999Z,6.30
2019-01-14T02:25:09.892Z,6.29
2019-01-14T02:27:39.202Z,6.37
2019-01-14T02:30:11.962Z,6.36
2019-01-14T02:32:39.929Z,6.33
2019-01-14T02:35:08.243Z,6.35
2019-01-14T02:37:36.195Z,6.31
2019-01-14T02:40:06.798Z,6.37
2019-01-14T02:42:34.764Z,6.35
2019-01-14T02:45:03.154Z,6.29
2019-01-14T02:47:31.136Z,6.30
2019-01-14T02:49:59.553Z,6.35
2019-01-14T02:52:27.824Z,6.38
2019-01-14T02:54:55.808Z,6.41
2019-01-14T02:57:23.776Z,6.42
2019-01-14T02:59:51.738Z,6.42
2019-01-14T03:02:20.052Z,6.36
2019-01-14T03:04:48.085Z,6.43
2019-01-14T03:07:16.035Z,6.41
2019-01-14T03:09:44.025Z,6.45
2019-01-14T03:12:11.991Z,6.41
2019-01-14T03:14:39.935Z,6.44
2019-01-14T03:17:07.864Z,6.43
2019-01-14T03:19:36.136Z,6.42
2019-01-14T03:22:04.372Z,6.38
2019-01-14T03:24:32.331Z,6.38
2019-01-14T03:27:00.302Z,6.37
2019-01-14T03:29:28.925Z,6.46
2019-01-14T03:31:57.106Z,6.50
2019-01-14T03:34:25.664Z,6.45
2019-01-14T03:36:53.637Z,6.60
2019-01-14T03:39:21.594Z,6.58
2019-01-14T03:41:49.530Z,6.59
2019-01-14T03:44:17.873Z,6.64
2019-01-14T03:46:47.238Z,6.54
2019-01-14T03:49:15.166Z,6.56
2019-01-14T03:51:43.241Z,6.63
2019-01-14T03:54:11.548Z,6.62
2019-01-14T03:56:39.825Z,6.55
2019-01-14T03:59:08.344Z,6.51
2019-01-14T04:01:36.582Z,6.51
2019-01-14T04:04:04.574Z,6.55
2019-01-14T04:06:32.529Z,6.46
2019-01-14T04:09:00.537Z,6.56
2019-01-14T04:11:28.528Z,6.48
2019-01-14T04:13:56.511Z,6.40
2019-01-14T04:16:24.535Z,6.37
2019-01-14T04:18:52.676Z,6.39
2019-01-14T04:21:20.679Z,6.36
2019-01-14T04:23:48.685Z,6.37
2019-01-14T04:26:17.288Z,6.34
2019-01-14T04:28:45.371Z,6.44
2019-01-14T04:31:13.570Z,6.47
2019-01-14T04:33:41.785Z,6.47
2019-01-14T04:36:09.952Z,6.44
2019-01-14T04:38:38.784Z,6.43
2019-01-14T04:41:07.368Z,6.38
2019-01-14T04:43:36.149Z,6.35
2019-01-14T04:46:04.169Z,6.38
2019-01-14T04:48:32.227Z,6.38
2019-01-14T04:51:00.155Z,6.38
2019-01-14T04:53:28.408Z,6.50
2019-01-14T04:55:56.380Z,6.49
2019-01-14T04:58:24.632Z,6.43
2019-01-14T05:00:52.687Z,6.55
2019-01-14T05:03:20.964Z,6.48
2019-01-14T05:05:49.194Z,6.55
2019-01-14T05:08:17.154Z,6.53
2019-01-14T05:10:45.449Z,6.64
2019-01-14T05:13:14.341Z,6.57
2019-01-14T05:15:42.603Z,6.64
2019-01-14T05:18:11.060Z,6.60
2019-01-14T05:20:38.905Z,6.64
2019-01-14T05:23:07.189Z,6.71
2019-01-14T05:25:35.435Z,6.71
2019-01-14T05:28:03.713Z,6.73
2019-01-14T05:30:31.650Z,6.74
2019-01-14T05:33:00.213Z,6.75
2019-01-14T05:35:28.262Z,6.75
2019-01-14T05:37:56.506Z,6.81
2019-01-14T05:40:25.663Z,6.82
2019-01-14T05:42:54.125Z,6.80
2019-01-14T05:45:22.135Z,6.69
2019-01-14T05:47:50.095Z,6.80
2019-01-14T05:50:18.419Z,6.81
2019-01-14T05:52:46.414Z,6.82
2019-01-14T05:55:17.560Z,6.78
2019-01-14T05:57:46.096Z,6.76
2019-01-14T06:00:38.633Z,6.74
2019-01-14T06:03:08.679Z,6.74
2019-01-14T06:05:36.793Z,6.61
2019-01-14T06:08:05.270Z,6.66
2019-01-14T06:10:34.072Z,6.51
2019-01-14T06:13:03.903Z,6.47
2019-01-14T06:15:31.903Z,6.50
2019-01-14T06:18:00.450Z,6.55
2019-01-14T06:20:30.809Z,6.52
2019-01-14T06:22:59.634Z,6.50
2019-01-14T06:25:27.642Z,6.48
2019-01-14T06:27:55.639Z,6.47
2019-01-14T06:30:26.958Z,6.38
2019-01-14T06:32:54.947Z,6.32
2019-01-14T06:35:23.484Z,6.28
2019-01-14T06:37:52.630Z,6.27
2019-01-14T06:40:22.025Z,6.17
2019-01-14T06:42:50.214Z,6.14
2019-01-14T06:45:18.561Z,6.09
2019-01-14T06:47:46.612Z,6.08
2019-01-14T06:50:18.476Z,6.05
2019-01-14T06:52:46.399Z,6.09
2019-01-14T06:55:14.902Z,6.02
2019-01-14T06:57:43.192Z,6.07
2019-01-14T07:00:21.523Z,6.08
2019-01-14T07:02:49.536Z,6.15
2019-01-14T07:05:17.787Z,6.11
2019-01-14T07:07:45.908Z,6.21
2019-01-14T07:10:18.501Z,6.25
2019-01-14T07:12:46.757Z,6.15
2019-01-14T07:15:14.980Z,6.30
2019-01-14T07:17:44.426Z,6.21
2019-01-14T07:20:12.881Z,6.26
2019-01-14T07:22:40.830Z,6.23
2019-01-14T07:25:09.417Z,6.31
2019-01-14T07:27:37.306Z,6.25
2019-01-14T07:30:10.035Z,6.25
2019-01-14T07:32:38.027Z,6.28
2019-01-14T07:35:06.154Z,6.25
2019-01-14T07:37:34.729Z,6.34
2019-01-14T07:40:05.344Z,6.30
2019-01-14T07:42:33.447Z,6.27
2019-01-14T07:45:01.735Z,6.23
2019-01-14T07:47:29.687Z,6.28
2019-01-14T07:49:57.724Z,6.38
2019-01-14T07:52:26.859Z,6.26
2019-01-14T07:54:54.824Z,6.37
2019-01-14T07:57:22.784Z,6.38
2019-01-14T07:59:50.786Z,6.41
2019-01-14T08:02:18.735Z,6.45
2019-01-14T08:04:47.114Z,6.44
2019-01-14T08:07:15.426Z,6.35
2019-01-14T08:09:43.371Z,6.29
2019-01-14T08:12:11.364Z,6.32
2019-01-14T08:14:42.743Z,6.23
2019-01-14T08:17:10.103Z,6.26
2019-01-14T08:19:38.070Z,6.34
2019-01-14T08:22:06.005Z,6.60
2019-01-14T08:24:34.250Z,6.52
2019-01-14T08:27:02.716Z,6.51
2019-01-14T08:29:30.667Z,6.38
2019-01-14T08:31:58.661Z,6.40
2019-01-14T08:34:27.220Z,6.49
2019-01-14T08:37:00.715Z,6.57
2019-01-14T08:39:25.186Z,6.53
2019-01-14T08:41:57.679Z,6.61
2019-01-14T08:44:32.870Z,6.91
2019-01-14T08:47:00.879Z,7.17
2019-01-14T08:49:28.881Z,7.43
2019-01-14T08:51:57.209Z,7.33
2019-01-14T08:54:26.230Z,7.32
2019-01-14T08:56:54.264Z,7.22
2019-01-14T08:59:22.225Z,6.98
2019-01-14T09:01:50.465Z,7.34
2019-01-14T09:04:22.365Z,7.43
2019-01-14T09:06:48.377Z,7.43
2019-01-14T09:09:16.740Z,7.44
2019-01-14T09:11:45.048Z,7.43
2019-01-14T09:14:13.330Z,7.48
2019-01-14T09:16:41.359Z,7.42
2019-01-14T09:19:09.300Z,7.23
2019-01-14T09:21:37.560Z,7.27
2019-01-14T09:24:05.848Z,7.04
2019-01-14T09:26:34.124Z,6.88
2019-01-14T09:29:02.177Z,6.89
2019-01-14T09:31:32.045Z,6.94
2019-01-14T09:34:00.796Z,7.13
2019-01-14T09:36:28.760Z,7.24
2019-01-14T09:38:57.009Z,7.20
2019-01-14T09:41:25.205Z,7.46
2019-01-14T09:43:53.176Z,7.47
2019-01-14T09:46:21.138Z,7.46
2019-01-14T09:48:49.223Z,7.45
2019-01-14T09:51:17.481Z,7.32
2019-01-14T09:53:45.497Z,7.05
2019-01-14T09:56:13.486Z,6.97
2019-01-14T09:58:41.444Z,7.11
2019-01-14T10:01:09.699Z,7.04
2019-01-14T10:03:38.149Z,7.05
2019-01-14T10:06:06.345Z,7.10
2019-01-14T10:08:34.901Z,7.11
2019-01-14T10:11:02.935Z,7.28
2019-01-14T10:13:31.299Z,7.40
2019-01-14T10:15:59.622Z,7.26
2019-01-14T10:18:27.729Z,7.10
2019-01-14T10:20:56.278Z,7.03
2019-01-14T10:23:24.931Z,7.15
2019-01-14T10:25:53.455Z,7.28
2019-01-14T10:28:21.489Z,7.28
2019-01-14T10:30:49.564Z,7.39
2019-01-14T10:33:17.620Z,7.52
2019-01-14T10:35:45.668Z,7.37
2019-01-14T10:38:14.050Z,7.31
2019-01-14T10:40:42.799Z,7.26
2019-01-14T10:43:10.768Z,6.92
2019-01-14T10:45:39.439Z,6.87
2019-01-14T10:48:07.506Z,7.13
2019-01-14T10:50:35.653Z,7.16
2019-01-14T10:53:03.708Z,6.84
2019-01-14T10:55:31.736Z,6.89
2019-01-14T10:57:59.685Z,6.91
2019-01-14T11:00:29.068Z,6.99
2019-01-14T11:02:58.432Z,7.01
2019-01-14T11:05:30.482Z,7.07
2019-01-14T11:07:59.277Z,6.92
2019-01-14T11:10:27.428Z,7.00
2019-01-14T11:12:57.563Z,6.88
2019-01-14T11:15:26.127Z,6.85
2019-01-14T11:17:54.404Z,6.85
2019-01-14T11:20:28.403Z,6.72
2019-01-14T11:22:58.687Z,6.82
2019-01-14T11:25:27.175Z,6.91
2019-01-14T11:27:55.211Z,6.99
2019-01-14T11:30:25.373Z,7.01
2019-01-14T11:32:53.428Z,6.98
2019-01-14T11:35:22.481Z,6.96
2019-01-14T11:37:50.830Z,6.98
2019-01-14T11:40:32.638Z,7.13
2019-01-14T11:43:00.841Z,7.11
2019-01-14T11:45:29.313Z,7.22
2019-01-14T11:47:57.349Z,7.37
2019-01-14T11:50:25.372Z,7.51
2019-01-14T11:52:53.462Z,7.57
2019-01-14T11:55:22.430Z,7.55
2019-01-14T11:57:50.844Z,7.65
2019-01-14T12:00:24.334Z,7.54
2019-01-14T12:02:52.434Z,7.57
2019-01-14T12:05:20.700Z,7.39
2019-01-14T12:07:48.985Z,7.63
2019-01-14T12:10:17.038Z,7.49
2019-01-14T12:12:45.097Z,7.47
2019-01-14T12:15:22.925Z,7.50
2019-01-14T12:17:51.027Z,7.44
2019-01-14T12:20:19.031Z,7.56
2019-01-14T12:22:46.985Z,8.12
2019-01-14T12:25:14.962Z,8.44
2019-01-14T12:27:43.667Z,8.55
2019-01-14T12:30:25.194Z,8.67
2019-01-14T12:32:53.776Z,8.63
2019-01-14T12:35:21.947Z,8.63
2019-01-14T12:37:50.009Z,8.53
2019-01-14T12:40:17.922Z,8.42
2019-01-14T12:42:46.186Z,8.52
2019-01-14T12:45:14.558Z,8.25
2019-01-14T12:47:42.472Z,8.00
2019-01-14T12:50:12.380Z,7.75
2019-01-14T12:52:41.029Z,7.62
2019-01-14T12:55:10.346Z,7.77
2019-01-14T12:57:39.521Z,8.36
2019-01-14T13:00:15.388Z,8.57
2019-01-14T13:02:43.619Z,8.49
2019-01-14T13:05:12.138Z,8.67
2019-01-14T13:07:40.285Z,8.41
2019-01-14T13:10:10.142Z,7.92
2019-01-14T13:12:38.389Z,7.62
2019-01-14T13:15:10.887Z,7.47
2019-01-14T13:17:39.494Z,7.32
2019-01-14T13:20:10.045Z,6.73
2019-01-14T13:22:38.265Z,4.47
2019-01-14T13:25:06.798Z,3.71
2019-01-14T13:27:36.086Z,3.56
2019-01-14T13:30:09.822Z,3.49
2019-01-14T13:32:38.762Z,3.56
2019-01-14T13:35:09.629Z,3.61
2019-01-14T13:37:37.963Z,3.67
2019-01-14T13:40:07.127Z,3.71
2019-01-14T13:42:35.230Z,3.65
2019-01-14T13:45:04.222Z,3.72
2019-01-14T13:47:32.270Z,3.62
2019-01-14T13:50:00.638Z,3.74
2019-01-14T13:52:28.646Z,3.62
2019-01-14T13:54:57.019Z,3.63
2019-01-14T13:57:24.992Z,3.62
2019-01-14T13:59:53.090Z,3.54
2019-01-14T14:02:21.070Z,3.65
2019-01-14T14:04:49.505Z,3.69
2019-01-14T14:07:17.782Z,3.67
2019-01-14T14:09:46.204Z,3.63
2019-01-14T14:12:14.505Z,3.52
2019-01-14T14:14:42.460Z,3.48
2019-01-14T14:17:10.488Z,3.49
2019-01-14T14:19:46.285Z,3.49
2019-01-14T14:22:14.348Z,3.53
2019-01-14T14:24:42.580Z,4.06
2019-01-14T14:27:10.577Z,5.34
2019-01-14T14:29:39.219Z,7.17
2019-01-14T14:32:07.672Z,7.28
2019-01-14T14:34:38.245Z,6.61
2019-01-14T14:37:06.915Z,5.94
2019-01-14T14:39:35.204Z,4.66
2019-01-14T14:42:03.582Z,4.17
2019-01-14T14:44:31.964Z,4.14
2019-01-14T14:47:00.459Z,4.20
2019-01-14T14:49:28.455Z,4.20
2019-01-14T14:51:56.476Z,3.88
2019-01-14T14:54:24.507Z,3.95
2019-01-14T14:56:53.254Z,3.89
2019-01-14T14:59:21.525Z,3.96
2019-01-14T15:01:49.500Z,3.92
2019-01-14T15:04:17.554Z,3.88
2019-01-14T15:06:45.778Z,3.89
2019-01-14T15:09:15.887Z,3.83
2019-01-14T15:11:43.952Z,3.77
2019-01-14T15:14:13.756Z,3.87
2019-01-14T15:16:41.805Z,3.76
2019-01-14T15:19:10.000Z,3.93
2019-01-14T15:21:38.091Z,3.94
2019-01-14T15:24:07.884Z,3.84
2019-01-14T15:26:35.867Z,3.77
2019-01-14T15:29:05.541Z,3.86
2019-01-14T15:31:33.776Z,3.87
2019-01-14T15:34:01.775Z,3.81
2019-01-14T15:36:29.795Z,3.60
2019-01-14T15:38:57.895Z,3.50
2019-01-14T15:41:27.808Z,3.43
2019-01-14T15:43:55.885Z,3.37
2019-01-14T15:46:24.336Z,3.35
2019-01-14T15:48:54.463Z,3.30
2019-01-14T15:51:22.429Z,3.21
2019-01-14T15:53:51.325Z,3.28
2019-01-14T15:56:19.548Z,3.25
2019-01-14T15:58:49.094Z,3.25
2019-01-14T16:01:17.248Z,3.38
2019-01-14T16:03:45.625Z,3.40
2019-01-14T16:06:13.786Z,3.39
2019-01-14T16:08:42.158Z,3.42
2019-01-14T16:11:10.203Z,3.27
2019-01-14T16:13:38.118Z,3.28
2019-01-14T16:16:06.545Z,3.42
2019-01-14T16:18:34.968Z,3.42
2019-01-14T16:21:03.228Z,3.45
2019-01-14T16:23:31.286Z,3.66
2019-01-14T16:26:03.357Z,3.65
2019-01-14T16:28:35.784Z,3.66
2019-01-14T16:31:03.980Z,3.63
2019-01-14T16:33:31.996Z,3.67
2019-01-14T16:36:00.546Z,3.75
2019-01-14T16:38:28.676Z,3.64
2019-01-14T16:40:56.692Z,3.58
2019-01-14T16:43:24.900Z,3.48
2019-01-14T16:45:53.479Z,3.45
2019-01-14T16:48:25.346Z,3.43
2019-01-14T16:50:53.379Z,3.47
2019-01-14T16:53:21.521Z,3.45
2019-01-14T16:55:55.250Z,3.53
2019-01-14T16:58:23.499Z,3.54
2019-01-14T17:00:51.491Z,3.60
2019-01-14T17:03:19.532Z,3.65
2019-01-14T17:05:48.453Z,3.60
2019-01-14T17:08:16.520Z,3.63
2019-01-14T17:10:45.351Z,3.66
2019-01-14T17:13:13.307Z,3.76
2019-01-14T17:15:41.317Z,3.84
2019-01-14T17:18:09.961Z,3.80
2019-01-14T17:20:39.166Z,3.80
2019-01-14T17:23:07.387Z,3.90
2019-01-14T17:25:35.732Z,3.89
2019-01-14T17:28:04.097Z,3.96
2019-01-14T17:30:32.383Z,3.99
2019-01-14T17:33:00.575Z,4.01
2019-01-14T17:35:28.698Z,4.07
2019-01-14T17:37:56.998Z,4.12
2019-01-14T17:40:32.487Z,4.06
2019-01-14T17:42:56.387Z,4.14
2019-01-14T17:45:24.880Z,4.05
2019-01-14T17:47:53.282Z,4.13
2019-01-14T17:50:22.006Z,4.13
2019-01-14T17:52:50.382Z,4.16
2019-01-14T17:55:19.577Z,4.22
2019-01-14T17:57:47.551Z,4.13
2019-01-14T18:00:24.564Z,4.15
2019-01-14T18:02:54.285Z,4.15
2019-01-14T18:05:22.653Z,4.15
2019-01-14T18:07:51.037Z,4.25
2019-01-14T18:10:20.942Z,4.35
2019-01-14T18:12:51.073Z,4.35
2019-01-14T18:15:19.260Z,4.38
2019-01-14T18:17:48.060Z,4.35
2019-01-14T18:20:19.013Z,4.43
2019-01-14T18:22:48.291Z,4.40
2019-01-14T18:25:16.449Z,4.41
2019-01-14T18:27:44.981Z,4.40
2019-01-14T18:30:16.848Z,4.33
2019-01-14T18:32:44.789Z,4.23
2019-01-14T18:35:13.985Z,4.20
2019-01-14T18:37:43.158Z,4.03
2019-01-14T18:40:14.509Z,3.95
2019-01-14T18:42:42.721Z,3.97
2019-01-14T18:45:12.640Z,3.96
2019-01-14T18:47:42.028Z,3.87
2019-01-14T18:50:13.826Z,3.76
2019-01-14T18:52:42.357Z,3.67
2019-01-14T18:55:17.104Z,3.54
2019-01-14T18:57:46.143Z,3.61
2019-01-14T19:00:23.351Z,3.51
2019-01-14T19:02:53.890Z,3.58
2019-01-14T19:05:21.978Z,3.67
2019-01-14T19:07:50.062Z,3.72
2019-01-14T19:10:18.076Z,3.82
2019-01-14T19:12:46.013Z,3.80
2019-01-14T19:15:17.116Z,3.94
2019-01-14T19:17:46.202Z,3.91
2019-01-14T19:20:28.151Z,3.84
2019-01-14T19:22:56.259Z,3.75
2019-01-14T19:25:24.540Z,3.68
2019-01-14T19:27:52.924Z,3.78
2019-01-14T19:30:21.287Z,3.68
2019-01-14T19:32:49.292Z,3.65
2019-01-14T19:35:17.568Z,3.60
2019-01-14T19:37:45.616Z,3.59
2019-01-14T19:40:14.940Z,3.52
2019-01-14T19:42:42.943Z,3.50
2019-01-14T19:45:11.978Z,3.42
2019-01-14T19:47:40.150Z,3.41
2019-01-14T19:50:11.667Z,3.48
2019-01-14T19:52:39.839Z,3.46
2019-01-14T19:55:08.998Z,3.40
2019-01-14T19:57:37.804Z,3.28
2019-01-14T20:00:08.620Z,3.46
2019-01-14T20:02:39.058Z,3.59
2019-01-14T20:05:07.583Z,3.52
2019-01-14T20:07:36.009Z,3.72
2019-01-14T20:10:06.871Z,3.57
2019-01-14T20:12:34.850Z,3.50
2019-01-14T20:15:03.692Z,3.55
2019-01-14T20:17:31.771Z,3.47
2019-01-14T20:19:59.820Z,3.64
2019-01-14T20:22:28.091Z,3.57
2019-01-14T20:24:56.207Z,3.70
2019-01-14T20:27:24.188Z,3.59
2019-01-14T20:29:52.579Z,3.64
2019-01-14T20:32:21.222Z,3.58
2019-01-14T20:34:49.803Z,3.60
2019-01-14T20:37:20.444Z,3.62
2019-01-14T20:39:51.350Z,3.57
2019-01-14T20:42:19.608Z,3.54
2019-01-14T20:44:47.588Z,3.52
2019-01-14T20:47:15.902Z,3.57
2019-01-14T20:49:43.859Z,3.54
2019-01-14T20:52:12.427Z,3.37
2019-01-14T20:54:40.635Z,3.50
2019-01-14T20:57:08.841Z,3.39
2019-01-14T20:59:38.650Z,3.51
2019-01-14T21:02:06.849Z,3.66
2019-01-14T21:04:35.679Z,3.67
2019-01-14T21:07:04.939Z,3.69
2019-01-14T21:09:33.189Z,3.64
2019-01-14T21:12:01.367Z,3.82
2019-01-14T21:14:29.679Z,3.65
2019-01-14T21:16:59.303Z,3.65
2019-01-14T21:19:29.501Z,3.70
2019-01-14T21:21:59.680Z,3.60
2019-01-14T21:24:29.027Z,3.71
2019-01-14T21:26:57.219Z,3.72
2019-01-14T21:29:26.133Z,3.76
2019-01-14T21:31:54.300Z,3.82
2019-01-14T21:34:22.448Z,4.05
2019-01-14T21:36:50.740Z,3.80
2019-01-14T21:39:21.269Z,3.82
2019-01-14T21:41:49.446Z,3.86
2019-01-14T21:44:17.543Z,3.77
2019-01-14T21:46:47.153Z,3.65
2019-01-14T21:49:15.663Z,3.49
2019-01-14T21:51:45.752Z,3.47
2019-01-14T21:54:14.874Z,3.28
2019-01-14T21:56:43.696Z,3.20
2019-01-14T21:59:11.832Z,3.20
2019-01-14T22:01:41.233Z,3.04
2019-01-14T22:04:09.575Z,3.16
2019-01-14T22:06:38.796Z,3.14
2019-01-14T22:09:07.039Z,3.17
2019-01-14T22:11:38.822Z,3.21
2019-01-14T22:14:07.711Z,3.15
2019-01-14T22:16:37.702Z,3.08
2019-01-14T22:19:06.092Z,3.21
2019-01-14T22:21:35.549Z,3.19
2019-01-14T22:24:03.751Z,3.30
2019-01-14T22:26:35.139Z,3.05
2019-01-14T22:29:03.610Z,3.01
2019-01-14T22:31:37.231Z,2.99
2019-01-14T22:34:08.737Z,2.91
2019-01-14T22:36:38.187Z,2.70
2019-01-14T22:39:09.000Z,2.67
2019-01-14T22:41:45.530Z,2.66
2019-01-14T22:44:09.419Z,2.62
2019-01-14T22:46:39.797Z,2.53
2019-01-14T22:49:08.562Z,2.56
2019-01-14T22:51:36.425Z,2.61
2019-01-14T22:54:04.391Z,2.70
2019-01-14T22:56:32.426Z,2.83
2019-01-14T22:59:00.794Z,2.99
2019-01-14T23:01:44.853Z,3.11
2019-01-14T23:04:13.224Z,3.16
2019-01-14T23:06:41.130Z,3.17
2019-01-14T23:09:10.051Z,3.19
2019-01-14T23:11:38.502Z,3.21
2019-01-14T23:14:07.072Z,3.27
2019-01-14T23:16:35.361Z,3.27
2019-01-14T23:19:03.685Z,3.27
2019-01-14T23:21:32.022Z,3.23
2019-01-14T23:24:00.678Z,3.18
2019-01-14T23:26:28.740Z,3.26
2019-01-14T23:28:57.364Z,3.26
2019-01-14T23:31:25.443Z,3.28
2019-01-14T23:33:53.575Z,3.23
2019-01-14T23:36:21.518Z,3.16
2019-01-14T23:38:50.560Z,3.08
2019-01-14T23:41:18.563Z,3.13
2019-01-14T23:43:47.651Z,3.19
2019-01-14T23:46:16.894Z,3.10
2019-01-14T23:48:44.889Z,3.01
2019-01-14T23:51:13.286Z,3.03
2019-01-14T23:53:41.253Z,3.15
2019-01-14T23:56:09.253Z,3.28
2019-01-14T23:58:37.274Z,3.31
